RYR50XY LFMU-EGGW
Flight info
| Callsign | RYR50XY |
|---|---|
| Flight time | N/A |
| Altitude | 34000 |
| Route | FJR DCT NG DCT MOLEN DCT MTL DCT ETREK DCT MADOT DCT MOPEM DCT CACHI DCT AVLON DCT OKRIX DCT BRY DCT CLM DCT KOPOR DCT PIREG DCT SOSUN DCT SUBIP UM733 UNDUG |
| Aircraft | B738/M-SDE3FGILRWY/SB1 |
Departure
| Time | N/A |
|---|---|
| Airport | Béziers Vias airport (LFMU) |
Arrival
| Time | 2026-04-30 19:14 |
|---|---|
| Airport | London Luton Airport (EGGW) |
| Time | Latitude | Longitude | Altitude | Speed | Heading |
|---|---|---|---|---|---|
| 2026-04-30 17:39 | 43.52300 | 3.82081 | 14656 ft | 368 kts | 63° |
| 2026-04-30 17:41 | 43.61924 | 4.07221 | 19848 ft | 398 kts | 58° |
| 2026-04-30 17:42 | 43.64777 | 4.13806 | 21010 ft | 406 kts | 59° |
| 2026-04-30 17:42 | 43.69118 | 4.24023 | 22780 ft | 416 kts | 59° |
| 2026-04-30 17:43 | 43.72074 | 4.31026 | 23940 ft | 422 kts | 59° |
| 2026-04-30 17:44 | 43.77217 | 4.40918 | 25326 ft | 428 kts | 34° |
| 2026-04-30 17:44 | 43.85591 | 4.44876 | 26724 ft | 431 kts | 10° |
| 2026-04-30 17:46 | 44.00461 | 4.49599 | 28880 ft | 445 kts | 11° |
| 2026-04-30 17:47 | 44.12440 | 4.54743 | 30406 ft | 457 kts | 19° |
| 2026-04-30 17:48 | 44.24336 | 4.61273 | 31930 ft | 457 kts | 19° |
| 2026-04-30 17:48 | 44.33203 | 4.66012 | 33119 ft | 454 kts | 18° |
| 2026-04-30 17:49 | 44.44929 | 4.72296 | 34568 ft | 450 kts | 18° |
| 2026-04-30 17:50 | 44.56819 | 4.77241 | 35604 ft | 444 kts | 0° |
| 2026-04-30 17:51 | 44.65987 | 4.75814 | 36287 ft | 441 kts | 348° |
| 2026-04-30 17:52 | 44.75063 | 4.73673 | 36989 ft | 440 kts | 349° |
| 2026-04-30 17:53 | 44.90230 | 4.70278 | 38082 ft | 439 kts | 349° |
| 2026-04-30 17:54 | 45.02458 | 4.67541 | 38195 ft | 450 kts | 349° |
| 2026-04-30 17:56 | 45.27342 | 4.61920 | 38177 ft | 452 kts | 349° |
| 2026-04-30 17:58 | 45.45895 | 4.57666 | 38137 ft | 448 kts | 349° |
| 2026-04-30 18:00 | 45.70405 | 4.52005 | 38147 ft | 445 kts | 349° |
| 2026-04-30 18:01 | 45.85738 | 4.48438 | 38129 ft | 447 kts | 349° |
| 2026-04-30 18:02 | 46.04192 | 4.44119 | 38134 ft | 449 kts | 350° |
| 2026-04-30 18:04 | 46.22766 | 4.39742 | 38127 ft | 452 kts | 350° |
| 2026-04-30 18:06 | 46.47309 | 4.31788 | 38100 ft | 452 kts | 346° |
| 2026-04-30 18:08 | 46.68725 | 4.24218 | 38120 ft | 453 kts | 346° |
| 2026-04-30 18:10 | 46.93234 | 4.15488 | 38125 ft | 454 kts | 346° |
| 2026-04-30 18:11 | 47.13431 | 4.06897 | 38119 ft | 455 kts | 338° |
| 2026-04-30 18:13 | 47.28087 | 3.97998 | 38119 ft | 456 kts | 339° |
| 2026-04-30 18:14 | 47.42817 | 3.89233 | 38122 ft | 457 kts | 339° |
| 2026-04-30 18:15 | 47.60505 | 3.78629 | 38122 ft | 457 kts | 339° |
| 2026-04-30 18:16 | 47.72278 | 3.71533 | 38140 ft | 458 kts | 339° |
| 2026-04-30 18:17 | 47.78190 | 3.67956 | 38133 ft | 458 kts | 339° |
| 2026-04-30 18:18 | 47.87045 | 3.62581 | 38136 ft | 458 kts | 339° |
| 2026-04-30 18:18 | 47.92945 | 3.58988 | 38121 ft | 458 kts | 339° |
| 2026-04-30 18:19 | 47.98843 | 3.55387 | 38133 ft | 458 kts | 339° |
| 2026-04-30 18:19 | 48.04736 | 3.51769 | 38140 ft | 458 kts | 339° |
| 2026-04-30 18:20 | 48.10632 | 3.48137 | 38138 ft | 458 kts | 338° |
| 2026-04-30 18:20 | 48.16524 | 3.44500 | 38135 ft | 458 kts | 339° |
| 2026-04-30 18:21 | 48.22413 | 3.40854 | 38146 ft | 458 kts | 338° |
| 2026-04-30 18:21 | 48.28308 | 3.37197 | 38140 ft | 458 kts | 338° |
| 2026-04-30 18:22 | 48.34199 | 3.33533 | 38142 ft | 458 kts | 339° |
| 2026-04-30 18:22 | 48.43038 | 3.28009 | 38139 ft | 459 kts | 338° |
| 2026-04-30 18:23 | 48.48880 | 3.24285 | 38143 ft | 459 kts | 338° |
| 2026-04-30 18:23 | 48.54797 | 3.20494 | 38154 ft | 459 kts | 338° |
| 2026-04-30 18:24 | 48.63585 | 3.14858 | 38151 ft | 460 kts | 338° |
| 2026-04-30 18:25 | 48.69472 | 3.11072 | 38141 ft | 460 kts | 338° |
| 2026-04-30 18:25 | 48.78305 | 3.05374 | 38157 ft | 460 kts | 338° |
| 2026-04-30 18:26 | 48.87055 | 2.99373 | 38160 ft | 461 kts | 332° |
| 2026-04-30 18:27 | 48.95372 | 2.91990 | 38157 ft | 462 kts | 330° |
| 2026-04-30 18:28 | 49.03683 | 2.84573 | 38167 ft | 462 kts | 331° |
| 2026-04-30 18:28 | 49.12027 | 2.77222 | 38167 ft | 461 kts | 331° |
| 2026-04-30 18:29 | 49.23137 | 2.67400 | 38164 ft | 461 kts | 330° |
| 2026-04-30 18:30 | 49.34239 | 2.57525 | 38169 ft | 461 kts | 330° |
| 2026-04-30 18:31 | 49.42561 | 2.50089 | 38159 ft | 461 kts | 330° |
| 2026-04-30 18:32 | 49.50869 | 2.42594 | 38159 ft | 462 kts | 327° |
| 2026-04-30 18:33 | 49.58237 | 2.32930 | 38160 ft | 462 kts | 317° |
| 2026-04-30 18:33 | 49.65353 | 2.22895 | 38160 ft | 463 kts | 318° |
| 2026-04-30 18:34 | 49.72538 | 2.12899 | 38169 ft | 463 kts | 318° |
| 2026-04-30 18:35 | 49.77325 | 2.06227 | 38157 ft | 464 kts | 318° |
| 2026-04-30 18:35 | 49.82111 | 1.99535 | 38163 ft | 464 kts | 318° |
| 2026-04-30 18:36 | 49.88657 | 1.88580 | 38169 ft | 463 kts | 301° |
| 2026-04-30 18:36 | 49.91333 | 1.79513 | 38162 ft | 463 kts | 290° |
| 2026-04-30 18:37 | 49.92493 | 1.74856 | 38162 ft | 463 kts | 290° |
| 2026-04-30 18:37 | 49.94860 | 1.65564 | 38158 ft | 463 kts | 291° |
| 2026-04-30 18:38 | 49.97347 | 1.56346 | 38144 ft | 463 kts | 297° |
| 2026-04-30 18:38 | 50.01038 | 1.48181 | 38155 ft | 463 kts | 315° |
| 2026-04-30 18:39 | 50.05842 | 1.41520 | 38150 ft | 463 kts | 320° |
| 2026-04-30 18:39 | 50.10740 | 1.35028 | 38147 ft | 463 kts | 319° |
| 2026-04-30 18:40 | 50.15615 | 1.28450 | 38151 ft | 463 kts | 319° |
| 2026-04-30 18:40 | 50.20473 | 1.21805 | 37728 ft | 469 kts | 319° |
| 2026-04-30 18:40 | 50.22916 | 1.18447 | 37222 ft | 467 kts | 319° |
| 2026-04-30 18:41 | 50.25351 | 1.15096 | 36657 ft | 465 kts | 318° |
| 2026-04-30 18:41 | 50.27776 | 1.11756 | 36068 ft | 465 kts | 318° |
| 2026-04-30 18:41 | 50.30203 | 1.08408 | 35429 ft | 466 kts | 318° |
| 2026-04-30 18:41 | 50.32640 | 1.05044 | 34792 ft | 468 kts | 318° |
| 2026-04-30 18:42 | 50.35083 | 1.01666 | 34149 ft | 470 kts | 318° |
| 2026-04-30 18:42 | 50.39998 | 0.94856 | 32694 ft | 473 kts | 318° |
| 2026-04-30 18:42 | 50.42446 | 0.91458 | 32264 ft | 468 kts | 318° |
| 2026-04-30 18:45 | 50.66333 | 0.59535 | 27493 ft | 432 kts | 319° |
| 2026-04-30 18:45 | 50.68613 | 0.56476 | 27030 ft | 429 kts | 319° |
| 2026-04-30 18:45 | 50.70883 | 0.53427 | 26570 ft | 426 kts | 319° |
| 2026-04-30 18:46 | 50.73133 | 0.50401 | 26125 ft | 424 kts | 319° |
| 2026-04-30 18:46 | 50.75369 | 0.47391 | 25671 ft | 421 kts | 319° |
| 2026-04-30 18:46 | 50.77592 | 0.44394 | 25222 ft | 419 kts | 319° |
| 2026-04-30 18:46 | 50.79800 | 0.41415 | 24778 ft | 417 kts | 319° |
| 2026-04-30 18:47 | 50.82001 | 0.38440 | 24313 ft | 416 kts | 319° |
| 2026-04-30 18:47 | 50.84194 | 0.35473 | 23866 ft | 414 kts | 319° |
| 2026-04-30 18:47 | 50.86382 | 0.32508 | 23352 ft | 413 kts | 319° |
| 2026-04-30 18:47 | 50.88542 | 0.29576 | 22870 ft | 410 kts | 319° |
| 2026-04-30 18:48 | 50.90719 | 0.26619 | 22407 ft | 407 kts | 319° |
| 2026-04-30 18:48 | 50.92861 | 0.23704 | 21960 ft | 405 kts | 319° |
| 2026-04-30 18:48 | 50.94987 | 0.20808 | 21521 ft | 402 kts | 319° |
| 2026-04-30 18:48 | 50.97102 | 0.17924 | 21072 ft | 399 kts | 319° |
| 2026-04-30 18:49 | 50.99197 | 0.15064 | 20658 ft | 396 kts | 319° |
| 2026-04-30 18:49 | 51.01277 | 0.12222 | 20270 ft | 394 kts | 319° |
| 2026-04-30 18:49 | 51.02671 | 0.10417 | 20179 ft | 389 kts | 322° |
| 2026-04-30 18:49 | 51.05606 | 0.07070 | 19891 ft | 396 kts | 325° |
| 2026-04-30 18:50 | 51.07933 | 0.04563 | 19694 ft | 400 kts | 326° |
| 2026-04-30 18:50 | 51.09456 | 0.02932 | 19579 ft | 399 kts | 326° |
| 2026-04-30 18:50 | 51.11745 | 0.00463 | 19393 ft | 396 kts | 325° |
| 2026-04-30 18:50 | 51.14010 | -0.02007 | 19208 ft | 393 kts | 325° |
| 2026-04-30 18:51 | 51.16251 | -0.04472 | 19037 ft | 391 kts | 325° |
| 2026-04-30 18:51 | 51.18481 | -0.06940 | 18864 ft | 389 kts | 325° |
| 2026-04-30 18:51 | 51.20691 | -0.09397 | 18693 ft | 387 kts | 324° |
| 2026-04-30 18:51 | 51.22899 | -0.11857 | 18526 ft | 387 kts | 324° |
| 2026-04-30 18:52 | 51.25129 | -0.14347 | 18313 ft | 386 kts | 324° |
| 2026-04-30 18:52 | 51.27334 | -0.16810 | 18135 ft | 386 kts | 324° |
| 2026-04-30 18:52 | 51.29531 | -0.19268 | 17975 ft | 385 kts | 324° |
| 2026-04-30 18:52 | 51.31723 | -0.21723 | 17792 ft | 385 kts | 324° |
| 2026-04-30 18:53 | 51.33915 | -0.24180 | 17611 ft | 385 kts | 324° |
| 2026-04-30 18:53 | 51.36076 | -0.26604 | 17427 ft | 384 kts | 324° |
| 2026-04-30 18:53 | 51.38262 | -0.29059 | 17254 ft | 384 kts | 324° |
| 2026-04-30 18:53 | 51.40470 | -0.31467 | 17076 ft | 384 kts | 330° |
| 2026-04-30 18:54 | 51.42971 | -0.32877 | 16889 ft | 382 kts | 353° |
| 2026-04-30 18:54 | 51.45601 | -0.32848 | 16744 ft | 376 kts | 12° |
| 2026-04-30 18:54 | 51.48063 | -0.31567 | 16583 ft | 371 kts | 27° |
| 2026-04-30 18:54 | 51.50396 | -0.29800 | 16412 ft | 370 kts | 29° |
| 2026-04-30 18:55 | 51.52703 | -0.27963 | 16245 ft | 370 kts | 29° |
| 2026-04-30 18:55 | 51.57315 | -0.24313 | 15905 ft | 369 kts | 28° |
| 2026-04-30 18:55 | 51.59621 | -0.22521 | 15816 ft | 368 kts | 28° |
| 2026-04-30 18:56 | 51.64008 | -0.19140 | 15506 ft | 366 kts | 28° |
| 2026-04-30 18:56 | 51.66304 | -0.17372 | 15346 ft | 365 kts | 28° |
| 2026-04-30 18:56 | 51.68582 | -0.15617 | 15184 ft | 359 kts | 28° |
| 2026-04-30 18:57 | 51.72793 | -0.12369 | 14917 ft | 338 kts | 28° |
| 2026-04-30 18:57 | 51.74794 | -0.10739 | 14796 ft | 327 kts | 36° |
| 2026-04-30 18:57 | 51.76471 | -0.08409 | 14685 ft | 312 kts | 50° |
| 2026-04-30 18:58 | 51.79413 | -0.03370 | 14461 ft | 307 kts | 51° |
| 2026-04-30 18:58 | 51.80889 | -0.00827 | 14323 ft | 312 kts | 50° |
| 2026-04-30 18:58 | 51.82392 | 0.01740 | 14214 ft | 316 kts | 50° |
| 2026-04-30 18:59 | 51.85417 | 0.06863 | 13968 ft | 313 kts | 50° |
| 2026-04-30 19:00 | 51.89900 | 0.14434 | 13601 ft | 308 kts | 50° |
| 2026-04-30 19:00 | 51.91379 | 0.16933 | 13475 ft | 307 kts | 49° |
| 2026-04-30 19:00 | 51.95066 | 0.20478 | 13263 ft | 313 kts | 26° |
| 2026-04-30 19:01 | 51.99096 | 0.23217 | 13027 ft | 315 kts | 26° |
| 2026-04-30 19:01 | 52.01203 | 0.24198 | 12884 ft | 320 kts | 6° |
| 2026-04-30 19:02 | 52.05344 | 0.21937 | 12685 ft | 321 kts | 316° |
| 2026-04-30 19:02 | 52.07154 | 0.15665 | 12094 ft | 308 kts | 266° |
| 2026-04-30 19:03 | 52.06267 | 0.08987 | 11389 ft | 301 kts | 249° |
| 2026-04-30 19:03 | 52.05009 | 0.02546 | 10771 ft | 297 kts | 246° |
| 2026-04-30 19:04 | 52.03641 | -0.03697 | 10184 ft | 293 kts | 246° |
| 2026-04-30 19:04 | 52.02266 | -0.09930 | 9543 ft | 290 kts | 246° |
| 2026-04-30 19:05 | 52.00916 | -0.16059 | 8911 ft | 287 kts | 246° |
| 2026-04-30 19:05 | 51.99582 | -0.22111 | 8495 ft | 281 kts | 246° |
| 2026-04-30 19:06 | 51.98268 | -0.28063 | 8051 ft | 280 kts | 246° |
| 2026-04-30 19:06 | 51.97607 | -0.31045 | 7862 ft | 282 kts | 246° |
| 2026-04-30 19:06 | 51.96275 | -0.37052 | 7484 ft | 282 kts | 246° |
| 2026-04-30 19:07 | 51.94947 | -0.43030 | 7098 ft | 281 kts | 246° |
| 2026-04-30 19:07 | 51.94285 | -0.46001 | 6910 ft | 280 kts | 246° |
| 2026-04-30 19:08 | 51.92977 | -0.51869 | 6495 ft | 272 kts | 246° |
| 2026-04-30 19:08 | 51.91714 | -0.57518 | 6109 ft | 262 kts | 246° |
| 2026-04-30 19:08 | 51.91101 | -0.60258 | 5933 ft | 256 kts | 246° |
| 2026-04-30 19:09 | 51.89483 | -0.65032 | 5657 ft | 229 kts | 207° |
| 2026-04-30 19:09 | 51.88036 | -0.65817 | 5414 ft | 218 kts | 186° |
| 2026-04-30 19:09 | 51.86529 | -0.65914 | 5012 ft | 216 kts | 177° |
| 2026-04-30 19:10 | 51.83861 | -0.64246 | 4094 ft | 214 kts | 130° |
| 2026-04-30 19:10 | 51.83525 | -0.59554 | 3273 ft | 222 kts | 80° |
| 2026-04-30 19:11 | 51.83957 | -0.57209 | 2945 ft | 210 kts | 79° |
| 2026-04-30 19:11 | 51.84703 | -0.52943 | 2422 ft | 185 kts | 81° |
| 2026-04-30 19:11 | 51.85035 | -0.51003 | 2186 ft | 172 kts | 82° |
| 2026-04-30 19:12 | 51.85338 | -0.49233 | 1948 ft | 155 kts | 82° |
| 2026-04-30 19:12 | 51.85607 | -0.47661 | 1771 ft | 134 kts | 83° |
| 2026-04-30 19:12 | 51.85846 | -0.46256 | 1586 ft | 129 kts | 82° |
| 2026-04-30 19:13 | 51.86322 | -0.43444 | 1187 ft | 134 kts | 79° |
| 2026-04-30 19:13 | 51.86824 | -0.40519 | 810 ft | 136 kts | 76° |
| 2026-04-30 19:13 | 51.87085 | -0.39044 | 638 ft | 135 kts | 76° |
| 2026-04-30 19:14 | 51.87326 | -0.37615 | 520 ft | 116 kts | 74° |
| 2026-04-30 19:14 | 51.87489 | -0.36694 | 525 ft | 55 kts | 74° |
| 2026-04-30 19:14 | 51.87568 | -0.36235 | 518 ft | 32 kts | 74° |
| 2026-04-30 19:14 | 51.87619 | -0.35954 | 515 ft | 17 kts | 61° |
| 2026-04-30 19:15 | 51.87714 | -0.35940 | 515 ft | 15 kts | 344° |
| 2026-04-30 19:15 | 51.87762 | -0.36203 | 517 ft | 16 kts | 254° |
| 2026-04-30 19:15 | 51.87728 | -0.36396 | 517 ft | 19 kts | 254° |
| 2026-04-30 19:16 | 51.87692 | -0.36599 | 520 ft | 18 kts | 255° |
| 2026-04-30 19:16 | 51.87659 | -0.36797 | 523 ft | 18 kts | 255° |
| 2026-04-30 19:16 | 51.87590 | -0.37195 | 521 ft | 19 kts | 255° |
| 2026-04-30 19:17 | 51.87587 | -0.37395 | 521 ft | 18 kts | 298° |
| 2026-04-30 19:17 | 51.87740 | -0.37711 | 521 ft | 19 kts | 296° |
| 2026-04-30 19:17 | 51.87796 | -0.37901 | 522 ft | 18 kts | 296° |
| 2026-04-30 19:18 | 51.87946 | -0.38009 | 522 ft | 14 kts | 14° |
| 2026-04-30 19:18 | 51.88045 | -0.37901 | 522 ft | 9 kts | 38° |
| 2026-04-30 19:18 | 51.88071 | -0.37828 | 522 ft | 6 kts | 119° |
| 2026-04-30 19:19 | 51.88055 | -0.37794 | 522 ft | 3 kts | 128° |
| 2026-04-30 19:19 | 51.88053 | -0.37790 | 522 ft | 0 kts | 128° |